Impacts TAF Board INFO
FOR SITUATIONAL AWARENESS. NOT TO BE USED FOR FLIGHT PLANNING PURPOSES.
IDs:

KMSP - Minneapolis-St Paul, MN, US

Issued at 2320 UTC 20 Apr 2018
Updated at 0149 UTC 21 Apr 2018
Potential Impact None Slight Moderate High
Time0053Z 21/02Z 21/03Z 21/04Z 21/05Z 21/06Z 21/07Z 21/08Z 21/09Z 21/10Z 21/11Z 21/12Z 21/13Z 21/14Z>>
Type OBS PRVL PRVL PRVL PRVL PRVL PRVL PRVL PRVL PRVL PRVL PRVL PRVL PRVL
VIS 10 >6 >6 >6 >6 >6 >6 >6 >6 >6 >6 >6 >6 >6
CIG 190 150 150 150 150 150 150 150 150 150 150 150 150 150
Cover OVC BKN BKN BKN BKN BKN BKN BKN BKN BKN BKN BKN BKN BKN
FltCat VFR VFR VFR VFR VFR VFR VFR VFR VFR VFR VFR VFR VFR VFR
WX -- -- -- -- -- -- -- -- -- -- -- -- -- --
WDir 190 VRB VRB VRB VRB VRB VRB VRB VRB VRB VRB VRB VRB VRB
WSpd 4 3 3 3 3 3 3 3 3 3 3 3 3 3
WGst -- -- -- -- -- -- -- -- -- -- -- -- -- --

Raw TAF
KMSP 202320Z 2100/2206 VRB03KT P6SM BKN150
  FM211700 16005KT P6SM SKC


Raw METAR
KMSP 210053Z 19004KT 10SM SCT150 OVC190 09/M06 A3043 RMK AO2 SLP312 T00891056
KMSP 202353Z 17008KT 10SM SCT150 OVC250 10/M06 A3043 RMK AO2 SLP313 4/001 T01001056 10117 20089 55003
KMSP 202253Z 16005KT 10SM BKN250 10/M07 A3042 RMK AO2 SLP309 T01001072

METAR Board
Radar Display
Forecast Discussion

FOR SITUATIONAL AWARENESS. NOT TO BE USED FOR FLIGHT PLANNING PURPOSES.